sensor_id;sensor_type;location;lat;lon;timestamp;temperature;humidity
29093;DHT22;16167;48.768;14.984;2024-03-02T00:01:07;4.10;99.90
29093;DHT22;16167;48.768;14.984;2024-03-02T00:03:36;4.00;99.90
29093;DHT22;16167;48.768;14.984;2024-03-02T00:06:05;4.00;99.90
29093;DHT22;16167;48.768;14.984;2024-03-02T00:08:34;4.00;99.90
29093;DHT22;16167;48.768;14.984;2024-03-02T00:11:03;3.90;99.90
29093;DHT22;16167;48.768;14.984;2024-03-02T00:13:32;3.90;99.90
29093;DHT22;16167;48.768;14.984;2024-03-02T00:16:03;3.80;99.90
29093;DHT22;16167;48.768;14.984;2024-03-02T00:18:35;3.80;99.90
29093;DHT22;16167;48.768;14.984;2024-03-02T00:21:06;3.90;99.90
29093;DHT22;16167;48.768;14.984;2024-03-02T00:23:36;3.90;99.90
29093;DHT22;16167;48.768;14.984;2024-03-02T00:26:06;4.00;99.90
29093;DHT22;16167;48.768;14.984;2024-03-02T00:28:37;4.00;99.90
29093;DHT22;16167;48.768;14.984;2024-03-02T00:31:06;4.10;99.90
29093;DHT22;16167;48.768;14.984;2024-03-02T00:33:35;4.10;99.90
29093;DHT22;16167;48.768;14.984;2024-03-02T00:36:04;4.20;99.90
29093;DHT22;16167;48.768;14.984;2024-03-02T00:38:34;4.20;99.90
29093;DHT22;16167;48.768;14.984;2024-03-02T00:41:05;4.30;99.90
29093;DHT22;16167;48.768;14.984;2024-03-02T00:43:47;4.30;99.90
29093;DHT22;16167;48.768;14.984;2024-03-02T00:46:17;4.30;99.90
29093;DHT22;16167;48.768;14.984;2024-03-02T00:48:54;4.30;99.90
29093;DHT22;16167;48.768;14.984;2024-03-02T00:51:24;4.30;99.90
29093;DHT22;16167;48.768;14.984;2024-03-02T00:53:54;4.40;99.90
29093;DHT22;16167;48.768;14.984;2024-03-02T00:56:24;4.40;99.90
29093;DHT22;16167;48.768;14.984;2024-03-02T00:58:54;4.40;99.90
29093;DHT22;16167;48.768;14.984;2024-03-02T01:01:22;4.50;99.90
29093;DHT22;16167;48.768;14.984;2024-03-02T01:03:51;4.50;99.90
29093;DHT22;16167;48.768;14.984;2024-03-02T01:06:19;4.50;99.90
29093;DHT22;16167;48.768;14.984;2024-03-02T01:08:49;4.60;99.90
29093;DHT22;16167;48.768;14.984;2024-03-02T01:11:19;4.60;99.90
29093;DHT22;16167;48.768;14.984;2024-03-02T01:13:50;4.70;99.90
29093;DHT22;16167;48.768;14.984;2024-03-02T01:16:20;4.70;99.90
29093;DHT22;16167;48.768;14.984;2024-03-02T01:18:49;4.70;99.90
29093;DHT22;16167;48.768;14.984;2024-03-02T01:21:17;4.80;99.90
29093;DHT22;16167;48.768;14.984;2024-03-02T01:23:46;4.80;99.90
29093;DHT22;16167;48.768;14.984;2024-03-02T01:26:14;4.90;99.90
29093;DHT22;16167;48.768;14.984;2024-03-02T01:28:43;4.90;99.90
29093;DHT22;16167;48.768;14.984;2024-03-02T01:31:11;5.00;99.90
29093;DHT22;16167;48.768;14.984;2024-03-02T01:33:41;5.10;99.90
29093;DHT22;16167;48.768;14.984;2024-03-02T01:36:09;5.10;99.90
29093;DHT22;16167;48.768;14.984;2024-03-02T01:38:37;5.20;99.90
29093;DHT22;16167;48.768;14.984;2024-03-02T01:41:05;5.20;99.90
29093;DHT22;16167;48.768;14.984;2024-03-02T01:43:34;5.20;99.90
29093;DHT22;16167;48.768;14.984;2024-03-02T01:46:06;5.30;99.90
29093;DHT22;16167;48.768;14.984;2024-03-02T01:48:34;5.30;99.90
29093;DHT22;16167;48.768;14.984;2024-03-02T01:51:04;5.40;99.90
29093;DHT22;16167;48.768;14.984;2024-03-02T01:53:33;5.40;99.90
29093;DHT22;16167;48.768;14.984;2024-03-02T01:56:02;5.40;99.90
29093;DHT22;16167;48.768;14.984;2024-03-02T01:58:30;5.50;99.90
29093;DHT22;16167;48.768;14.984;2024-03-02T02:03:40;5.60;99.90
29093;DHT22;16167;48.768;14.984;2024-03-02T02:06:10;5.60;99.90
29093;DHT22;16167;48.768;14.984;2024-03-02T02:08:38;5.60;99.90
29093;DHT22;16167;48.768;14.984;2024-03-02T02:11:07;5.60;99.90
29093;DHT22;16167;48.768;14.984;2024-03-02T02:13:36;5.70;99.90
29093;DHT22;16167;48.768;14.984;2024-03-02T02:16:05;5.70;99.90
29093;DHT22;16167;48.768;14.984;2024-03-02T02:18:34;5.70;99.90
29093;DHT22;16167;48.768;14.984;2024-03-02T02:21:03;5.70;99.90
29093;DHT22;16167;48.768;14.984;2024-03-02T02:23:33;5.70;99.90
29093;DHT22;16167;48.768;14.984;2024-03-02T02:26:01;5.80;99.90
29093;DHT22;16167;48.768;14.984;2024-03-02T02:28:30;5.80;99.90
29093;DHT22;16167;48.768;14.984;2024-03-02T02:30:58;5.80;99.90
29093;DHT22;16167;48.768;14.984;2024-03-02T02:33:27;5.80;99.90
29093;DHT22;16167;48.768;14.984;2024-03-02T02:35:56;5.80;99.90
29093;DHT22;16167;48.768;14.984;2024-03-02T02:38:24;5.80;99.90
29093;DHT22;16167;48.768;14.984;2024-03-02T02:40:54;5.80;99.90
29093;DHT22;16167;48.768;14.984;2024-03-02T02:43:22;5.80;99.90
29093;DHT22;16167;48.768;14.984;2024-03-02T02:45:50;5.80;99.90
29093;DHT22;16167;48.768;14.984;2024-03-02T02:48:19;5.90;99.90
29093;DHT22;16167;48.768;14.984;2024-03-02T02:50:47;5.80;99.90
29093;DHT22;16167;48.768;14.984;2024-03-02T02:53:16;5.90;99.90
29093;DHT22;16167;48.768;14.984;2024-03-02T02:55:44;5.80;99.90
29093;DHT22;16167;48.768;14.984;2024-03-02T02:58:14;5.80;99.90
29093;DHT22;16167;48.768;14.984;2024-03-02T03:00:42;5.80;99.90
29093;DHT22;16167;48.768;14.984;2024-03-02T03:03:11;5.80;99.90
29093;DHT22;16167;48.768;14.984;2024-03-02T03:05:39;5.80;99.90
29093;DHT22;16167;48.768;14.984;2024-03-02T03:08:07;5.80;99.90
29093;DHT22;16167;48.768;14.984;2024-03-02T03:10:35;5.80;99.90
29093;DHT22;16167;48.768;14.984;2024-03-02T03:13:04;5.80;99.90
29093;DHT22;16167;48.768;14.984;2024-03-02T03:15:36;5.80;99.90
29093;DHT22;16167;48.768;14.984;2024-03-02T03:18:05;5.80;99.90
29093;DHT22;16167;48.768;14.984;2024-03-02T03:20:34;5.80;99.90
29093;DHT22;16167;48.768;14.984;2024-03-02T03:23:03;5.80;99.90
29093;DHT22;16167;48.768;14.984;2024-03-02T03:25:31;5.70;99.90
29093;DHT22;16167;48.768;14.984;2024-03-02T03:28:00;5.70;99.90
29093;DHT22;16167;48.768;14.984;2024-03-02T03:30:30;5.60;99.90
29093;DHT22;16167;48.768;14.984;2024-03-02T03:33:00;5.50;99.90
29093;DHT22;16167;48.768;14.984;2024-03-02T03:35:28;5.50;99.90
29093;DHT22;16167;48.768;14.984;2024-03-02T03:37:56;5.40;99.90
29093;DHT22;16167;48.768;14.984;2024-03-02T03:40:24;5.30;99.90
29093;DHT22;16167;48.768;14.984;2024-03-02T03:42:53;5.30;99.90
29093;DHT22;16167;48.768;14.984;2024-03-02T03:45:23;5.20;99.90
29093;DHT22;16167;48.768;14.984;2024-03-02T03:47:53;5.20;99.90
29093;DHT22;16167;48.768;14.984;2024-03-02T03:50:23;5.10;99.90
29093;DHT22;16167;48.768;14.984;2024-03-02T03:52:51;5.00;99.90
29093;DHT22;16167;48.768;14.984;2024-03-02T03:55:19;5.00;99.90
29093;DHT22;16167;48.768;14.984;2024-03-02T03:57:47;4.90;99.90
29093;DHT22;16167;48.768;14.984;2024-03-02T04:00:15;4.70;99.90
29093;DHT22;16167;48.768;14.984;2024-03-02T04:02:43;4.70;99.90
29093;DHT22;16167;48.768;14.984;2024-03-02T04:05:12;4.60;99.90
29093;DHT22;16167;48.768;14.984;2024-03-02T04:07:42;4.50;99.90
29093;DHT22;16167;48.768;14.984;2024-03-02T04:10:11;4.40;99.90
29093;DHT22;16167;48.768;14.984;2024-03-02T04:12:39;4.30;99.90
29093;DHT22;16167;48.768;14.984;2024-03-02T04:15:08;4.30;99.90
29093;DHT22;16167;48.768;14.984;2024-03-02T04:17:36;4.20;99.90
29093;DHT22;16167;48.768;14.984;2024-03-02T04:20:06;4.20;99.90
29093;DHT22;16167;48.768;14.984;2024-03-02T04:22:34;4.10;99.90
29093;DHT22;16167;48.768;14.984;2024-03-02T04:25:04;4.10;99.90
29093;DHT22;16167;48.768;14.984;2024-03-02T04:27:34;4.10;99.90
29093;DHT22;16167;48.768;14.984;2024-03-02T04:30:04;4.00;99.90
29093;DHT22;16167;48.768;14.984;2024-03-02T04:32:32;4.00;99.90
29093;DHT22;16167;48.768;14.984;2024-03-02T04:35:01;3.90;99.90
29093;DHT22;16167;48.768;14.984;2024-03-02T04:37:29;3.90;99.90
29093;DHT22;16167;48.768;14.984;2024-03-02T04:39:58;3.90;99.90
29093;DHT22;16167;48.768;14.984;2024-03-02T04:42:26;3.80;99.90
29093;DHT22;16167;48.768;14.984;2024-03-02T04:44:54;3.80;99.90
29093;DHT22;16167;48.768;14.984;2024-03-02T04:47:23;3.70;99.90
29093;DHT22;16167;48.768;14.984;2024-03-02T04:49:51;3.60;99.90
29093;DHT22;16167;48.768;14.984;2024-03-02T04:52:19;3.60;99.90
29093;DHT22;16167;48.768;14.984;2024-03-02T04:54:47;3.50;99.90
29093;DHT22;16167;48.768;14.984;2024-03-02T04:57:34;3.50;99.90
29093;DHT22;16167;48.768;14.984;2024-03-02T05:00:03;3.50;99.90
29093;DHT22;16167;48.768;14.984;2024-03-02T05:02:34;3.40;99.90
29093;DHT22;16167;48.768;14.984;2024-03-02T05:05:02;3.40;99.90
29093;DHT22;16167;48.768;14.984;2024-03-02T05:07:31;3.30;99.90
29093;DHT22;16167;48.768;14.984;2024-03-02T05:09:59;3.30;99.90
29093;DHT22;16167;48.768;14.984;2024-03-02T05:12:28;3.20;99.90
29093;DHT22;16167;48.768;14.984;2024-03-02T05:15:24;3.20;99.90
29093;DHT22;16167;48.768;14.984;2024-03-02T05:17:52;3.10;99.90
29093;DHT22;16167;48.768;14.984;2024-03-02T05:20:20;3.10;99.90
29093;DHT22;16167;48.768;14.984;2024-03-02T05:22:49;3.10;99.90
29093;DHT22;16167;48.768;14.984;2024-03-02T05:25:17;3.00;99.90
29093;DHT22;16167;48.768;14.984;2024-03-02T05:27:45;3.00;99.90
29093;DHT22;16167;48.768;14.984;2024-03-02T05:30:14;2.90;99.90
29093;DHT22;16167;48.768;14.984;2024-03-02T05:32:44;2.90;99.90
29093;DHT22;16167;48.768;14.984;2024-03-02T05:35:12;2.80;99.90
29093;DHT22;16167;48.768;14.984;2024-03-02T05:37:41;2.80;99.90
29093;DHT22;16167;48.768;14.984;2024-03-02T05:40:10;2.90;99.90
29093;DHT22;16167;48.768;14.984;2024-03-02T05:42:40;2.90;99.90
29093;DHT22;16167;48.768;14.984;2024-03-02T05:45:09;2.90;99.90
29093;DHT22;16167;48.768;14.984;2024-03-02T05:47:37;3.00;99.90
29093;DHT22;16167;48.768;14.984;2024-03-02T05:50:08;3.00;99.90
29093;DHT22;16167;48.768;14.984;2024-03-02T05:52:36;3.00;99.90
29093;DHT22;16167;48.768;14.984;2024-03-02T05:55:06;3.10;99.90
29093;DHT22;16167;48.768;14.984;2024-03-02T05:57:34;3.10;99.90
29093;DHT22;16167;48.768;14.984;2024-03-02T06:00:16;3.20;99.90
29093;DHT22;16167;48.768;14.984;2024-03-02T06:02:45;3.20;99.90
29093;DHT22;16167;48.768;14.984;2024-03-02T06:05:15;3.30;99.90
29093;DHT22;16167;48.768;14.984;2024-03-02T06:07:43;3.30;99.90
29093;DHT22;16167;48.768;14.984;2024-03-02T06:10:12;3.30;99.90
29093;DHT22;16167;48.768;14.984;2024-03-02T06:12:41;3.40;99.90
29093;DHT22;16167;48.768;14.984;2024-03-02T06:15:10;3.50;99.90
29093;DHT22;16167;48.768;14.984;2024-03-02T06:17:38;3.50;99.90
29093;DHT22;16167;48.768;14.984;2024-03-02T06:20:07;3.60;99.90
29093;DHT22;16167;48.768;14.984;2024-03-02T06:22:37;3.60;99.90
29093;DHT22;16167;48.768;14.984;2024-03-02T06:25:06;3.80;99.90
29093;DHT22;16167;48.768;14.984;2024-03-02T06:27:34;3.80;99.90
29093;DHT22;16167;48.768;14.984;2024-03-02T06:30:04;4.00;99.90
29093;DHT22;16167;48.768;14.984;2024-03-02T06:32:32;4.10;99.90
29093;DHT22;16167;48.768;14.984;2024-03-02T06:35:00;4.20;99.90
29093;DHT22;16167;48.768;14.984;2024-03-02T06:37:31;4.30;99.90
29093;DHT22;16167;48.768;14.984;2024-03-02T06:40:00;4.40;99.90
29093;DHT22;16167;48.768;14.984;2024-03-02T06:42:29;4.50;99.90
29093;DHT22;16167;48.768;14.984;2024-03-02T06:45:00;4.50;99.90
29093;DHT22;16167;48.768;14.984;2024-03-02T06:47:29;4.70;99.90
29093;DHT22;16167;48.768;14.984;2024-03-02T06:49:57;4.70;99.90
29093;DHT22;16167;48.768;14.984;2024-03-02T06:52:26;4.80;99.90
29093;DHT22;16167;48.768;14.984;2024-03-02T06:54:54;4.90;99.90
29093;DHT22;16167;48.768;14.984;2024-03-02T06:57:24;5.00;99.90
29093;DHT22;16167;48.768;14.984;2024-03-02T06:59:52;5.10;99.90
29093;DHT22;16167;48.768;14.984;2024-03-02T07:02:21;5.20;99.90
29093;DHT22;16167;48.768;14.984;2024-03-02T07:04:50;5.30;99.90
29093;DHT22;16167;48.768;14.984;2024-03-02T07:07:19;5.40;99.90
29093;DHT22;16167;48.768;14.984;2024-03-02T07:09:46;5.40;99.90
29093;DHT22;16167;48.768;14.984;2024-03-02T07:12:15;5.50;99.90
29093;DHT22;16167;48.768;14.984;2024-03-02T07:14:44;5.60;99.90
29093;DHT22;16167;48.768;14.984;2024-03-02T07:17:34;5.70;99.90
29093;DHT22;16167;48.768;14.984;2024-03-02T07:20:04;5.80;99.90
29093;DHT22;16167;48.768;14.984;2024-03-02T07:22:33;5.90;99.90
29093;DHT22;16167;48.768;14.984;2024-03-02T07:25:01;6.00;99.90
29093;DHT22;16167;48.768;14.984;2024-03-02T07:27:31;6.00;99.90
29093;DHT22;16167;48.768;14.984;2024-03-02T07:30:02;6.10;99.90
29093;DHT22;16167;48.768;14.984;2024-03-02T07:32:30;6.20;99.90
29093;DHT22;16167;48.768;14.984;2024-03-02T07:34:59;6.20;99.90
29093;DHT22;16167;48.768;14.984;2024-03-02T07:37:28;6.40;99.90
29093;DHT22;16167;48.768;14.984;2024-03-02T07:39:56;6.50;99.90
29093;DHT22;16167;48.768;14.984;2024-03-02T07:42:25;6.50;99.90
29093;DHT22;16167;48.768;14.984;2024-03-02T07:44:53;6.60;99.90
29093;DHT22;16167;48.768;14.984;2024-03-02T07:47:23;6.70;99.90
29093;DHT22;16167;48.768;14.984;2024-03-02T07:49:51;6.70;99.90
29093;DHT22;16167;48.768;14.984;2024-03-02T07:52:19;6.80;99.90
29093;DHT22;16167;48.768;14.984;2024-03-02T07:54:48;6.80;99.90
29093;DHT22;16167;48.768;14.984;2024-03-02T07:57:16;6.90;99.90
29093;DHT22;16167;48.768;14.984;2024-03-02T07:59:44;7.00;99.90
29093;DHT22;16167;48.768;14.984;2024-03-02T08:02:14;7.00;99.90
29093;DHT22;16167;48.768;14.984;2024-03-02T08:04:43;7.10;99.90
29093;DHT22;16167;48.768;14.984;2024-03-02T08:07:12;7.10;99.90
29093;DHT22;16167;48.768;14.984;2024-03-02T08:09:41;7.20;99.90
29093;DHT22;16167;48.768;14.984;2024-03-02T08:12:10;7.30;99.50
29093;DHT22;16167;48.768;14.984;2024-03-02T08:14:39;7.30;99.20
29093;DHT22;16167;48.768;14.984;2024-03-02T08:17:07;7.40;99.90
29093;DHT22;16167;48.768;14.984;2024-03-02T08:19:36;7.50;93.20
29093;DHT22;16167;48.768;14.984;2024-03-02T08:22:07;7.60;88.70
29093;DHT22;16167;48.768;14.984;2024-03-02T08:24:35;7.60;88.10
29093;DHT22;16167;48.768;14.984;2024-03-02T08:27:04;7.70;88.10
29093;DHT22;16167;48.768;14.984;2024-03-02T08:29:33;7.80;87.30
29093;DHT22;16167;48.768;14.984;2024-03-02T08:32:02;7.90;92.50
29093;DHT22;16167;48.768;14.984;2024-03-02T08:34:30;8.00;85.60
29093;DHT22;16167;48.768;14.984;2024-03-02T08:36:59;8.00;73.70
29093;DHT22;16167;48.768;14.984;2024-03-02T08:39:29;8.10;82.60
29093;DHT22;16167;48.768;14.984;2024-03-02T08:41:57;8.20;87.50
29093;DHT22;16167;48.768;14.984;2024-03-02T08:44:26;8.30;89.70
29093;DHT22;16167;48.768;14.984;2024-03-02T08:46:54;8.40;81.40
29093;DHT22;16167;48.768;14.984;2024-03-02T08:49:22;8.50;67.80
29093;DHT22;16167;48.768;14.984;2024-03-02T08:51:51;8.60;58.50
29093;DHT22;16167;48.768;14.984;2024-03-02T08:54:22;8.70;57.30
29093;DHT22;16167;48.768;14.984;2024-03-02T08:56:52;8.70;53.50
29093;DHT22;16167;48.768;14.984;2024-03-02T08:59:20;8.70;64.80
29093;DHT22;16167;48.768;14.984;2024-03-02T09:01:48;8.70;55.80
29093;DHT22;16167;48.768;14.984;2024-03-02T09:04:17;8.70;56.40
29093;DHT22;16167;48.768;14.984;2024-03-02T09:06:45;8.70;61.00
29093;DHT22;16167;48.768;14.984;2024-03-02T09:09:13;8.70;64.10
29093;DHT22;16167;48.768;14.984;2024-03-02T09:11:41;8.80;57.90
29093;DHT22;16167;48.768;14.984;2024-03-02T09:14:11;8.90;50.70
29093;DHT22;16167;48.768;14.984;2024-03-02T09:16:42;9.00;49.00
29093;DHT22;16167;48.768;14.984;2024-03-02T09:19:10;9.20;43.70
29093;DHT22;16167;48.768;14.984;2024-03-02T09:21:38;9.30;39.30
29093;DHT22;16167;48.768;14.984;2024-03-02T09:24:06;9.20;32.10
29093;DHT22;16167;48.768;14.984;2024-03-02T09:26:35;9.30;38.40
29093;DHT22;16167;48.768;14.984;2024-03-02T09:29:03;9.30;44.30
29093;DHT22;16167;48.768;14.984;2024-03-02T09:31:32;9.30;33.60
29093;DHT22;16167;48.768;14.984;2024-03-02T09:34:01;9.40;48.20
29093;DHT22;16167;48.768;14.984;2024-03-02T09:36:29;9.40;35.80
29093;DHT22;16167;48.768;14.984;2024-03-02T09:38:58;9.40;30.70
29093;DHT22;16167;48.768;14.984;2024-03-02T09:41:26;9.40;36.50
29093;DHT22;16167;48.768;14.984;2024-03-02T09:43:55;9.50;32.10
29093;DHT22;16167;48.768;14.984;2024-03-02T09:46:24;9.50;32.00
29093;DHT22;16167;48.768;14.984;2024-03-02T09:48:54;9.50;28.90
29093;DHT22;16167;48.768;14.984;2024-03-02T09:51:23;9.60;36.30
29093;DHT22;16167;48.768;14.984;2024-03-02T09:53:51;9.80;33.00
29093;DHT22;16167;48.768;14.984;2024-03-02T09:56:24;9.90;38.40
29093;DHT22;16167;48.768;14.984;2024-03-02T09:58:52;9.90;29.30
29093;DHT22;16167;48.768;14.984;2024-03-02T10:01:20;9.90;24.40
29093;DHT22;16167;48.768;14.984;2024-03-02T10:03:49;9.80;22.20
29093;DHT22;16167;48.768;14.984;2024-03-02T10:06:23;9.80;23.70
29093;DHT22;16167;48.768;14.984;2024-03-02T10:08:52;9.80;26.00
29093;DHT22;16167;48.768;14.984;2024-03-02T10:11:27;9.70;32.10
29093;DHT22;16167;48.768;14.984;2024-03-02T10:14:06;9.70;35.70
29093;DHT22;16167;48.768;14.984;2024-03-02T10:16:39;9.70;32.90
29093;DHT22;16167;48.768;14.984;2024-03-02T10:19:18;9.70;44.00
29093;DHT22;16167;48.768;14.984;2024-03-02T10:21:48;9.60;35.00
29093;DHT22;16167;48.768;14.984;2024-03-02T10:24:18;9.60;29.40
29093;DHT22;16167;48.768;14.984;2024-03-02T10:26:46;9.70;38.00
29093;DHT22;16167;48.768;14.984;2024-03-02T10:29:15;9.80;42.50
29093;DHT22;16167;48.768;14.984;2024-03-02T10:31:45;9.80;36.00
29093;DHT22;16167;48.768;14.984;2024-03-02T10:34:14;9.90;42.40
29093;DHT22;16167;48.768;14.984;2024-03-02T10:36:43;9.90;34.20
29093;DHT22;16167;48.768;14.984;2024-03-02T10:39:14;10.00;41.20
29093;DHT22;16167;48.768;14.984;2024-03-02T10:41:44;10.00;34.00
29093;DHT22;16167;48.768;14.984;2024-03-02T10:44:13;10.10;29.10
29093;DHT22;16167;48.768;14.984;2024-03-02T10:46:43;10.30;34.60
29093;DHT22;16167;48.768;14.984;2024-03-02T10:49:13;10.50;26.60
29093;DHT22;16167;48.768;14.984;2024-03-02T10:51:41;10.50;26.60
29093;DHT22;16167;48.768;14.984;2024-03-02T10:54:10;10.60;31.60
29093;DHT22;16167;48.768;14.984;2024-03-02T10:56:41;10.80;27.50
29093;DHT22;16167;48.768;14.984;2024-03-02T10:59:17;10.90;27.10
29093;DHT22;16167;48.768;14.984;2024-03-02T11:01:50;11.00;25.60
29093;DHT22;16167;48.768;14.984;2024-03-02T11:04:19;11.00;27.50
29093;DHT22;16167;48.768;14.984;2024-03-02T11:06:50;11.00;31.00
29093;DHT22;16167;48.768;14.984;2024-03-02T11:09:22;11.00;24.00
29093;DHT22;16167;48.768;14.984;2024-03-02T11:11:57;11.20;23.70
29093;DHT22;16167;48.768;14.984;2024-03-02T11:14:27;11.20;28.00
29093;DHT22;16167;48.768;14.984;2024-03-02T11:16:57;11.20;27.80
29093;DHT22;16167;48.768;14.984;2024-03-02T11:19:26;11.30;24.50
29093;DHT22;16167;48.768;14.984;2024-03-02T11:21:55;11.20;24.40
29093;DHT22;16167;48.768;14.984;2024-03-02T11:24:33;11.20;29.50
29093;DHT22;16167;48.768;14.984;2024-03-02T11:27:06;11.20;28.40
29093;DHT22;16167;48.768;14.984;2024-03-02T11:29:46;11.20;27.80
29093;DHT22;16167;48.768;14.984;2024-03-02T11:32:17;11.10;27.60
29093;DHT22;16167;48.768;14.984;2024-03-02T11:34:46;11.10;24.50
29093;DHT22;16167;48.768;14.984;2024-03-02T11:37:15;11.10;19.80
29093;DHT22;16167;48.768;14.984;2024-03-02T11:39:45;11.00;22.40
29093;DHT22;16167;48.768;14.984;2024-03-02T11:42:15;11.10;25.60
29093;DHT22;16167;48.768;14.984;2024-03-02T11:44:45;11.00;22.50
29093;DHT22;16167;48.768;14.984;2024-03-02T11:47:15;11.10;15.40
29093;DHT22;16167;48.768;14.984;2024-03-02T11:49:44;11.10;16.30
29093;DHT22;16167;48.768;14.984;2024-03-02T11:52:13;11.20;19.10
29093;DHT22;16167;48.768;14.984;2024-03-02T11:54:43;11.30;15.70
29093;DHT22;16167;48.768;14.984;2024-03-02T11:57:17;11.40;17.90
29093;DHT22;16167;48.768;14.984;2024-03-02T11:59:46;11.40;16.50
29093;DHT22;16167;48.768;14.984;2024-03-02T12:02:15;11.50;22.80
29093;DHT22;16167;48.768;14.984;2024-03-02T12:04:45;11.60;20.80
29093;DHT22;16167;48.768;14.984;2024-03-02T12:07:19;11.70;19.90
29093;DHT22;16167;48.768;14.984;2024-03-02T12:09:49;11.80;23.60
29093;DHT22;16167;48.768;14.984;2024-03-02T12:12:20;11.80;22.60
29093;DHT22;16167;48.768;14.984;2024-03-02T12:14:53;11.90;22.70
29093;DHT22;16167;48.768;14.984;2024-03-02T12:17:22;12.00;21.00
29093;DHT22;16167;48.768;14.984;2024-03-02T12:19:51;12.10;24.10
29093;DHT22;16167;48.768;14.984;2024-03-02T12:22:19;12.20;19.90
29093;DHT22;16167;48.768;14.984;2024-03-02T12:24:48;12.40;22.10
29093;DHT22;16167;48.768;14.984;2024-03-02T12:27:18;12.50;18.90
29093;DHT22;16167;48.768;14.984;2024-03-02T12:29:48;12.50;27.40
29093;DHT22;16167;48.768;14.984;2024-03-02T12:32:16;12.50;30.00
29093;DHT22;16167;48.768;14.984;2024-03-02T12:34:47;12.50;29.20
29093;DHT22;16167;48.768;14.984;2024-03-02T12:37:15;12.50;27.80
29093;DHT22;16167;48.768;14.984;2024-03-02T12:39:45;12.50;29.70
29093;DHT22;16167;48.768;14.984;2024-03-02T12:42:14;12.50;28.20
29093;DHT22;16167;48.768;14.984;2024-03-02T12:44:43;12.40;29.10
29093;DHT22;16167;48.768;14.984;2024-03-02T12:47:12;12.30;30.70
29093;DHT22;16167;48.768;14.984;2024-03-02T12:49:41;12.30;28.10
29093;DHT22;16167;48.768;14.984;2024-03-02T12:52:11;12.20;16.40
29093;DHT22;16167;48.768;14.984;2024-03-02T12:54:39;12.50;19.40
29093;DHT22;16167;48.768;14.984;2024-03-02T12:57:08;12.80;18.40
29093;DHT22;16167;48.768;14.984;2024-03-02T12:59:36;12.90;17.50
29093;DHT22;16167;48.768;14.984;2024-03-02T13:02:06;12.90;17.30
29093;DHT22;16167;48.768;14.984;2024-03-02T13:04:37;12.90;18.20
29093;DHT22;16167;48.768;14.984;2024-03-02T13:07:05;13.00;18.80
29093;DHT22;16167;48.768;14.984;2024-03-02T13:09:34;13.00;18.20
29093;DHT22;16167;48.768;14.984;2024-03-02T13:12:03;13.10;21.50
29093;DHT22;16167;48.768;14.984;2024-03-02T13:14:32;13.00;18.40
29093;DHT22;16167;48.768;14.984;2024-03-02T13:17:02;12.80;19.90
29093;DHT22;16167;48.768;14.984;2024-03-02T13:19:33;12.60;21.70
29093;DHT22;16167;48.768;14.984;2024-03-02T13:22:02;12.60;23.20
29093;DHT22;16167;48.768;14.984;2024-03-02T13:24:30;12.70;20.80
29093;DHT22;16167;48.768;14.984;2024-03-02T13:27:00;12.70;21.10
29093;DHT22;16167;48.768;14.984;2024-03-02T13:29:30;12.70;21.50
29093;DHT22;16167;48.768;14.984;2024-03-02T13:31:59;12.70;22.20
29093;DHT22;16167;48.768;14.984;2024-03-02T13:34:27;12.60;20.40
29093;DHT22;16167;48.768;14.984;2024-03-02T13:36:56;12.70;21.60
29093;DHT22;16167;48.768;14.984;2024-03-02T13:39:25;12.70;21.90
29093;DHT22;16167;48.768;14.984;2024-03-02T13:41:54;12.70;21.60
29093;DHT22;16167;48.768;14.984;2024-03-02T13:44:30;12.70;21.70
29093;DHT22;16167;48.768;14.984;2024-03-02T13:46:59;12.70;20.90
29093;DHT22;16167;48.768;14.984;2024-03-02T13:49:28;12.70;21.40
29093;DHT22;16167;48.768;14.984;2024-03-02T13:52:05;12.70;21.50
29093;DHT22;16167;48.768;14.984;2024-03-02T13:54:38;12.60;21.20
29093;DHT22;16167;48.768;14.984;2024-03-02T13:57:07;12.60;19.00
29093;DHT22;16167;48.768;14.984;2024-03-02T13:59:36;12.50;19.60
29093;DHT22;16167;48.768;14.984;2024-03-02T14:02:05;12.50;20.10
29093;DHT22;16167;48.768;14.984;2024-03-02T14:04:34;12.30;19.90
29093;DHT22;16167;48.768;14.984;2024-03-02T14:07:04;12.30;19.80
29093;DHT22;16167;48.768;14.984;2024-03-02T14:09:34;12.20;20.20
29093;DHT22;16167;48.768;14.984;2024-03-02T14:12:04;12.20;19.70
29093;DHT22;16167;48.768;14.984;2024-03-02T14:14:32;12.20;17.70
29093;DHT22;16167;48.768;14.984;2024-03-02T14:17:01;12.10;17.00
29093;DHT22;16167;48.768;14.984;2024-03-02T14:19:31;12.20;19.10
29093;DHT22;16167;48.768;14.984;2024-03-02T14:21:59;12.20;14.60
29093;DHT22;16167;48.768;14.984;2024-03-02T14:24:29;12.10;15.00
29093;DHT22;16167;48.768;14.984;2024-03-02T14:26:57;12.10;15.90
29093;DHT22;16167;48.768;14.984;2024-03-02T14:29:42;12.10;15.10
29093;DHT22;16167;48.768;14.984;2024-03-02T14:32:10;12.10;19.70
29093;DHT22;16167;48.768;14.984;2024-03-02T14:34:38;12.10;14.90
29093;DHT22;16167;48.768;14.984;2024-03-02T14:37:07;12.20;17.70
29093;DHT22;16167;48.768;14.984;2024-03-02T14:39:37;12.20;14.30
29093;DHT22;16167;48.768;14.984;2024-03-02T14:42:06;12.10;15.10
29093;DHT22;16167;48.768;14.984;2024-03-02T14:44:34;12.00;13.40
29093;DHT22;16167;48.768;14.984;2024-03-02T14:47:03;11.90;11.50
29093;DHT22;16167;48.768;14.984;2024-03-02T14:49:32;11.90;10.00
29093;DHT22;16167;48.768;14.984;2024-03-02T14:52:03;11.80;22.10
29093;DHT22;16167;48.768;14.984;2024-03-02T14:54:31;11.90;9.70
29093;DHT22;16167;48.768;14.984;2024-03-02T14:57:01;11.80;13.60
29093;DHT22;16167;48.768;14.984;2024-03-02T14:59:30;11.80;14.40
29093;DHT22;16167;48.768;14.984;2024-03-02T15:01:58;11.80;14.30
29093;DHT22;16167;48.768;14.984;2024-03-02T15:04:27;11.80;15.80
29093;DHT22;16167;48.768;14.984;2024-03-02T15:06:55;11.90;12.90
29093;DHT22;16167;48.768;14.984;2024-03-02T15:09:23;11.90;11.90
29093;DHT22;16167;48.768;14.984;2024-03-02T15:11:51;11.90;13.50
29093;DHT22;16167;48.768;14.984;2024-03-02T15:14:21;11.80;14.80
29093;DHT22;16167;48.768;14.984;2024-03-02T15:16:49;11.80;15.80
29093;DHT22;16167;48.768;14.984;2024-03-02T15:19:18;11.70;14.50
29093;DHT22;16167;48.768;14.984;2024-03-02T15:21:46;11.70;15.90
29093;DHT22;16167;48.768;14.984;2024-03-02T15:24:15;11.60;15.70
29093;DHT22;16167;48.768;14.984;2024-03-02T15:26:43;11.60;14.90
29093;DHT22;16167;48.768;14.984;2024-03-02T15:29:11;11.50;16.60
29093;DHT22;16167;48.768;14.984;2024-03-02T15:31:41;11.40;17.90
29093;DHT22;16167;48.768;14.984;2024-03-02T15:34:09;11.40;20.50
29093;DHT22;16167;48.768;14.984;2024-03-02T15:36:37;11.30;15.80
29093;DHT22;16167;48.768;14.984;2024-03-02T15:39:06;11.30;14.30
29093;DHT22;16167;48.768;14.984;2024-03-02T15:41:35;11.20;16.60